sensor_id;sensor_type;location;lat;lon;timestamp;pressure;altitude;pressure_sealevel;temperature;humidity
69524;BME280;56723;42.694;23.286;2023-04-30T07:23:50;94859.84;;;12.44;73.25
69524;BME280;56723;42.694;23.286;2023-04-30T07:26:18;94859.94;;;12.51;73.25
69524;BME280;56723;42.694;23.286;2023-04-30T07:28:46;94860.03;;;12.57;73.44
69524;BME280;56723;42.694;23.286;2023-04-30T07:31:14;94858.47;;;12.63;73.04
69524;BME280;56723;42.694;23.286;2023-04-30T07:33:42;94862.16;;;12.68;72.10
69524;BME280;56723;42.694;23.286;2023-04-30T07:36:10;94863.41;;;12.72;74.81
69524;BME280;56723;42.694;23.286;2023-04-30T07:38:38;94865.13;;;12.80;70.81
69524;BME280;56723;42.694;23.286;2023-04-30T07:41:05;94859.97;;;12.87;70.45
69524;BME280;56723;42.694;23.286;2023-04-30T07:43:32;94870.66;;;12.92;70.42
69524;BME280;56723;42.694;23.286;2023-04-30T07:45:59;94866.34;;;12.99;68.75
69524;BME280;56723;42.694;23.286;2023-04-30T07:48:26;94870.16;;;13.03;69.22
69524;BME280;56723;42.694;23.286;2023-04-30T07:50:53;94859.84;;;13.09;68.46
69524;BME280;56723;42.694;23.286;2023-04-30T07:53:20;94857.56;;;13.21;67.77
69524;BME280;56723;42.694;23.286;2023-04-30T07:55:47;94860.19;;;13.42;67.25
69524;BME280;56723;42.694;23.286;2023-04-30T07:58:14;94856.34;;;13.60;67.07
69524;BME280;56723;42.694;23.286;2023-04-30T08:00:41;94862.69;;;13.78;65.46
69524;BME280;56723;42.694;23.286;2023-04-30T08:03:08;94864.38;;;13.86;64.35
69524;BME280;56723;42.694;23.286;2023-04-30T08:05:35;94860.81;;;13.94;64.80
69524;BME280;56723;42.694;23.286;2023-04-30T08:08:02;94863.09;;;14.03;64.94
69524;BME280;56723;42.694;23.286;2023-04-30T08:10:29;94861.47;;;14.02;64.93
69524;BME280;56723;42.694;23.286;2023-04-30T08:12:57;94871.53;;;14.05;64.57
69524;BME280;56723;42.694;23.286;2023-04-30T08:15:25;94863.47;;;14.00;64.03
69524;BME280;56723;42.694;23.286;2023-04-30T08:17:53;94866.19;;;13.92;63.79
69524;BME280;56723;42.694;23.286;2023-04-30T08:20:20;94871.81;;;13.89;64.43
69524;BME280;56723;42.694;23.286;2023-04-30T08:22:49;94867.81;;;13.93;63.50
69524;BME280;56723;42.694;23.286;2023-04-30T08:25:16;94871.28;;;14.00;63.56
69524;BME280;56723;42.694;23.286;2023-04-30T08:27:43;94868.31;;;14.03;61.71
69524;BME280;56723;42.694;23.286;2023-04-30T08:30:11;94872.34;;;14.12;61.91
69524;BME280;56723;42.694;23.286;2023-04-30T08:32:38;94869.63;;;14.20;60.66
69524;BME280;56723;42.694;23.286;2023-04-30T08:35:06;94870.25;;;14.29;59.38
69524;BME280;56723;42.694;23.286;2023-04-30T08:37:33;94865.72;;;14.38;59.52
69524;BME280;56723;42.694;23.286;2023-04-30T08:40:00;94857.78;;;14.46;58.68
69524;BME280;56723;42.694;23.286;2023-04-30T08:42:34;94857.84;;;14.59;57.75
69524;BME280;56723;42.694;23.286;2023-04-30T08:45:03;94863.91;;;14.73;57.36
69524;BME280;56723;42.694;23.286;2023-04-30T08:47:30;94861.53;;;14.84;58.01
69524;BME280;56723;42.694;23.286;2023-04-30T08:49:57;94857.59;;;14.95;56.00
69524;BME280;56723;42.694;23.286;2023-04-30T08:52:25;94857.16;;;14.92;54.59
69524;BME280;56723;42.694;23.286;2023-04-30T08:54:56;94850.78;;;15.01;54.90
69524;BME280;56723;42.694;23.286;2023-04-30T08:57:24;94853.03;;;15.17;53.64
69524;BME280;56723;42.694;23.286;2023-04-30T08:59:52;94854.47;;;15.33;53.39
69524;BME280;56723;42.694;23.286;2023-04-30T09:02:20;94842.03;;;15.48;52.64
69524;BME280;56723;42.694;23.286;2023-04-30T09:04:48;94842.84;;;15.48;52.14
69524;BME280;56723;42.694;23.286;2023-04-30T09:07:17;94836.41;;;15.51;52.13
69524;BME280;56723;42.694;23.286;2023-04-30T09:09:44;94828.63;;;15.90;50.08
69524;BME280;56723;42.694;23.286;2023-04-30T09:12:17;94830.56;;;16.15;49.71
69524;BME280;56723;42.694;23.286;2023-04-30T09:15:00;94814.84;;;16.35;48.97
69524;BME280;56723;42.694;23.286;2023-04-30T09:17:28;94820.00;;;16.61;46.89
69524;BME280;56723;42.694;23.286;2023-04-30T09:20:09;94811.53;;;16.72;46.54
69524;BME280;56723;42.694;23.286;2023-04-30T09:22:38;94805.78;;;16.95;48.08
69524;BME280;56723;42.694;23.286;2023-04-30T09:25:06;94811.13;;;17.13;46.63
69524;BME280;56723;42.694;23.286;2023-04-30T09:27:34;94806.63;;;17.27;45.58
69524;BME280;56723;42.694;23.286;2023-04-30T09:30:02;94797.81;;;17.21;45.10
69524;BME280;56723;42.694;23.286;2023-04-30T09:32:30;94797.50;;;17.36;44.82
69524;BME280;56723;42.694;23.286;2023-04-30T09:34:57;94787.78;;;17.43;44.48
69524;BME280;56723;42.694;23.286;2023-04-30T09:37:53;94788.81;;;17.67;43.80
69524;BME280;56723;42.694;23.286;2023-04-30T09:43:01;94790.66;;;18.10;42.43
69524;BME280;56723;42.694;23.286;2023-04-30T09:45:46;94789.88;;;18.09;42.34
69524;BME280;56723;42.694;23.286;2023-04-30T09:48:14;94789.44;;;18.12;43.57
69524;BME280;56723;42.694;23.286;2023-04-30T09:50:43;94787.25;;;18.09;42.92
69524;BME280;56723;42.694;23.286;2023-04-30T09:53:12;94788.44;;;18.31;41.41
69524;BME280;56723;42.694;23.286;2023-04-30T09:55:44;94778.31;;;18.17;41.68
69524;BME280;56723;42.694;23.286;2023-04-30T09:58:13;94781.84;;;18.04;42.20
69524;BME280;56723;42.694;23.286;2023-04-30T10:00:41;94772.78;;;18.00;42.54
69524;BME280;56723;42.694;23.286;2023-04-30T10:03:10;94774.09;;;17.91;43.04
69524;BME280;56723;42.694;23.286;2023-04-30T10:05:45;94755.53;;;17.92;42.40
69524;BME280;56723;42.694;23.286;2023-04-30T10:08:33;94780.75;;;17.93;42.02
69524;BME280;56723;42.694;23.286;2023-04-30T10:11:03;94772.03;;;17.75;42.58
69524;BME280;56723;42.694;23.286;2023-04-30T10:13:39;94779.31;;;17.73;43.18
69524;BME280;56723;42.694;23.286;2023-04-30T10:16:20;94770.66;;;17.72;42.17
69524;BME280;56723;42.694;23.286;2023-04-30T10:18:51;94761.66;;;17.61;43.35
69524;BME280;56723;42.694;23.286;2023-04-30T10:21:22;94775.44;;;17.50;44.83
69524;BME280;56723;42.694;23.286;2023-04-30T10:23:52;94790.31;;;16.93;49.84
69524;BME280;56723;42.694;23.286;2023-04-30T10:26:20;94823.56;;;16.09;57.83
69524;BME280;56723;42.694;23.286;2023-04-30T10:28:49;94841.22;;;15.41;61.96
69524;BME280;56723;42.694;23.286;2023-04-30T10:31:16;94844.69;;;14.87;63.69
69524;BME280;56723;42.694;23.286;2023-04-30T10:36:25;94837.03;;;14.72;72.21
69524;BME280;56723;42.694;23.286;2023-04-30T10:38:57;94832.75;;;14.58;68.90
69524;BME280;56723;42.694;23.286;2023-04-30T10:41:27;94829.78;;;14.61;71.22
69524;BME280;56723;42.694;23.286;2023-04-30T10:44:01;94819.41;;;14.81;68.86
69524;BME280;56723;42.694;23.286;2023-04-30T10:46:28;94816.06;;;15.07;67.93
69524;BME280;56723;42.694;23.286;2023-04-30T10:48:55;94805.03;;;15.24;63.73
69524;BME280;56723;42.694;23.286;2023-04-30T10:51:22;94805.88;;;15.51;65.31
69524;BME280;56723;42.694;23.286;2023-04-30T10:53:50;94800.09;;;15.76;68.92
69524;BME280;56723;42.694;23.286;2023-04-30T10:56:31;94804.88;;;16.05;59.45
69524;BME280;56723;42.694;23.286;2023-04-30T10:58:59;94788.38;;;16.11;52.37
69524;BME280;56723;42.694;23.286;2023-04-30T11:01:29;94792.50;;;16.39;49.51
69524;BME280;56723;42.694;23.286;2023-04-30T11:04:08;94784.84;;;16.50;49.81
69524;BME280;56723;42.694;23.286;2023-04-30T11:06:55;94784.19;;;16.68;47.36
69524;BME280;56723;42.694;23.286;2023-04-30T11:12:25;94778.91;;;17.13;44.87
69524;BME280;56723;42.694;23.286;2023-04-30T11:15:11;94783.16;;;17.07;45.76
69524;BME280;56723;42.694;23.286;2023-04-30T11:17:39;94786.66;;;17.01;46.44
69524;BME280;56723;42.694;23.286;2023-04-30T11:20:14;94786.22;;;17.04;46.97
69524;BME280;56723;42.694;23.286;2023-04-30T11:22:44;94787.38;;;17.15;49.30
69524;BME280;56723;42.694;23.286;2023-04-30T11:25:12;94778.91;;;17.13;47.25
69524;BME280;56723;42.694;23.286;2023-04-30T11:27:43;94775.25;;;17.20;44.45
69524;BME280;56723;42.694;23.286;2023-04-30T11:30:13;94769.91;;;17.34;43.98
69524;BME280;56723;42.694;23.286;2023-04-30T11:32:45;94770.88;;;17.39;43.26
69524;BME280;56723;42.694;23.286;2023-04-30T11:35:17;94772.81;;;17.50;44.57
69524;BME280;56723;42.694;23.286;2023-04-30T11:37:47;94768.88;;;17.66;45.33
69524;BME280;56723;42.694;23.286;2023-04-30T11:40:15;94764.34;;;17.80;43.33
69524;BME280;56723;42.694;23.286;2023-04-30T11:42:43;94775.16;;;18.08;44.92
69524;BME280;56723;42.694;23.286;2023-04-30T11:45:14;94788.06;;;18.28;48.27
69524;BME280;56723;42.694;23.286;2023-04-30T11:47:48;94768.72;;;18.04;48.46
69524;BME280;56723;42.694;23.286;2023-04-30T11:50:20;94764.63;;;17.90;50.22
69524;BME280;56723;42.694;23.286;2023-04-30T11:52:54;94760.78;;;17.92;49.59
69524;BME280;56723;42.694;23.286;2023-04-30T11:55:23;94759.34;;;17.96;49.06
69524;BME280;56723;42.694;23.286;2023-04-30T11:57:53;94752.19;;;18.22;50.64
69524;BME280;56723;42.694;23.286;2023-04-30T12:00:28;94758.56;;;18.32;49.09
69524;BME280;56723;42.694;23.286;2023-04-30T12:02:59;94760.44;;;18.07;49.06
69524;BME280;56723;42.694;23.286;2023-04-30T12:05:26;94763.78;;;17.96;50.95
69524;BME280;56723;42.694;23.286;2023-04-30T12:10:25;94773.91;;;17.68;51.27
69524;BME280;56723;42.694;23.286;2023-04-30T12:12:52;94762.50;;;17.55;51.31
69524;BME280;56723;42.694;23.286;2023-04-30T12:15:24;94768.69;;;17.36;51.04
69524;BME280;56723;42.694;23.286;2023-04-30T12:17:57;94791.78;;;17.14;52.89
69524;BME280;56723;42.694;23.286;2023-04-30T12:20:26;94788.47;;;17.01;54.69
69524;BME280;56723;42.694;23.286;2023-04-30T12:22:54;94799.44;;;16.78;54.91
69524;BME280;56723;42.694;23.286;2023-04-30T12:25:22;94803.72;;;16.52;54.52
69524;BME280;56723;42.694;23.286;2023-04-30T12:27:50;94805.03;;;16.23;58.34
69524;BME280;56723;42.694;23.286;2023-04-30T12:30:19;94803.22;;;16.17;59.61
69524;BME280;56723;42.694;23.286;2023-04-30T12:32:51;94812.31;;;16.02;60.17
69524;BME280;56723;42.694;23.286;2023-04-30T12:35:20;94807.50;;;15.85;61.86
69524;BME280;56723;42.694;23.286;2023-04-30T12:37:49;94807.94;;;15.76;62.33
69524;BME280;56723;42.694;23.286;2023-04-30T12:40:25;94796.88;;;15.67;64.20
69524;BME280;56723;42.694;23.286;2023-04-30T12:43:02;94809.34;;;15.72;64.74
69524;BME280;56723;42.694;23.286;2023-04-30T12:45:49;94801.06;;;16.01;62.51
69524;BME280;56723;42.694;23.286;2023-04-30T12:48:22;94799.19;;;16.21;62.00
69524;BME280;56723;42.694;23.286;2023-04-30T12:50:52;94795.38;;;16.17;60.06
69524;BME280;56723;42.694;23.286;2023-04-30T12:53:20;94788.56;;;16.16;59.63
69524;BME280;56723;42.694;23.286;2023-04-30T12:56:07;94813.88;;;16.16;60.21
69524;BME280;56723;42.694;23.286;2023-04-30T12:58:43;94801.84;;;16.02;61.30
69524;BME280;56723;42.694;23.286;2023-04-30T13:01:19;94796.59;;;16.15;59.85
69524;BME280;56723;42.694;23.286;2023-04-30T13:03:49;94801.41;;;16.24;57.81
69524;BME280;56723;42.694;23.286;2023-04-30T13:06:17;94798.59;;;16.33;56.86
69524;BME280;56723;42.694;23.286;2023-04-30T13:08:45;94786.88;;;16.35;57.39
69524;BME280;56723;42.694;23.286;2023-04-30T13:11:24;94784.47;;;16.47;58.78
69524;BME280;56723;42.694;23.286;2023-04-30T13:13:53;94781.16;;;16.00;60.15
69524;BME280;56723;42.694;23.286;2023-04-30T13:16:23;94768.13;;;15.80;61.74
69524;BME280;56723;42.694;23.286;2023-04-30T13:18:53;94764.50;;;15.81;60.49
69524;BME280;56723;42.694;23.286;2023-04-30T13:21:21;94772.16;;;15.70;61.99
69524;BME280;56723;42.694;23.286;2023-04-30T13:23:48;94764.53;;;15.68;61.70
69524;BME280;56723;42.694;23.286;2023-04-30T13:26:20;94758.28;;;15.63;61.57
69524;BME280;56723;42.694;23.286;2023-04-30T13:28:49;94757.28;;;15.70;61.00
69524;BME280;56723;42.694;23.286;2023-04-30T13:31:16;94752.84;;;15.77;59.44
69524;BME280;56723;42.694;23.286;2023-04-30T13:33:44;94756.25;;;15.78;60.64
69524;BME280;56723;42.694;23.286;2023-04-30T13:36:11;94751.63;;;15.93;58.90
69524;BME280;56723;42.694;23.286;2023-04-30T13:38:38;94746.78;;;16.03;57.98
69524;BME280;56723;42.694;23.286;2023-04-30T13:41:05;94755.41;;;16.10;58.05
69524;BME280;56723;42.694;23.286;2023-04-30T13:43:32;94741.94;;;16.07;58.79
69524;BME280;56723;42.694;23.286;2023-04-30T13:45:59;94744.72;;;16.18;57.71
69524;BME280;56723;42.694;23.286;2023-04-30T13:48:26;94751.16;;;16.22;56.20
69524;BME280;56723;42.694;23.286;2023-04-30T13:50:53;94754.72;;;16.35;56.18
69524;BME280;56723;42.694;23.286;2023-04-30T13:53:21;94744.25;;;16.35;55.58
69524;BME280;56723;42.694;23.286;2023-04-30T13:55:48;94746.66;;;16.36;54.66
69524;BME280;56723;42.694;23.286;2023-04-30T13:58:15;94741.63;;;16.35;53.70
69524;BME280;56723;42.694;23.286;2023-04-30T14:00:42;94747.31;;;16.32;55.52
69524;BME280;56723;42.694;23.286;2023-04-30T14:03:11;94743.84;;;16.38;54.04
69524;BME280;56723;42.694;23.286;2023-04-30T14:05:39;94742.41;;;16.42;53.00
69524;BME280;56723;42.694;23.286;2023-04-30T14:08:06;94739.41;;;16.45;52.53
69524;BME280;56723;42.694;23.286;2023-04-30T14:10:33;94733.69;;;16.61;52.62
69524;BME280;56723;42.694;23.286;2023-04-30T14:13:00;94735.63;;;16.79;52.96
69524;BME280;56723;42.694;23.286;2023-04-30T14:15:27;94731.28;;;16.98;51.83
69524;BME280;56723;42.694;23.286;2023-04-30T14:17:56;94734.69;;;17.05;50.48
69524;BME280;56723;42.694;23.286;2023-04-30T14:20:23;94719.22;;;16.96;50.15
69524;BME280;56723;42.694;23.286;2023-04-30T14:22:51;94725.88;;;16.92;49.70
69524;BME280;56723;42.694;23.286;2023-04-30T14:25:18;94731.72;;;16.94;48.76
69524;BME280;56723;42.694;23.286;2023-04-30T14:27:45;94731.69;;;17.01;51.64
69524;BME280;56723;42.694;23.286;2023-04-30T14:30:13;94721.72;;;17.10;49.36
69524;BME280;56723;42.694;23.286;2023-04-30T14:32:40;94726.66;;;17.00;48.55
69524;BME280;56723;42.694;23.286;2023-04-30T14:35:07;94723.34;;;17.11;49.17
69524;BME280;56723;42.694;23.286;2023-04-30T14:37:35;94721.84;;;17.46;46.50
69524;BME280;56723;42.694;23.286;2023-04-30T14:40:02;94715.34;;;17.55;46.52
69524;BME280;56723;42.694;23.286;2023-04-30T14:42:30;94709.88;;;17.82;46.01
69524;BME280;56723;42.694;23.286;2023-04-30T14:44:59;94711.34;;;18.14;44.42
69524;BME280;56723;42.694;23.286;2023-04-30T14:47:26;94702.03;;;18.37;44.20
69524;BME280;56723;42.694;23.286;2023-04-30T14:49:54;94713.34;;;18.67;42.12
69524;BME280;56723;42.694;23.286;2023-04-30T14:52:21;94720.16;;;18.86;41.63
69524;BME280;56723;42.694;23.286;2023-04-30T14:54:48;94707.72;;;18.93;41.40
69524;BME280;56723;42.694;23.286;2023-04-30T14:57:16;94714.13;;;18.97;41.12
69524;BME280;56723;42.694;23.286;2023-04-30T14:59:43;94716.81;;;19.09;41.35
69524;BME280;56723;42.694;23.286;2023-04-30T15:02:10;94708.28;;;19.25;41.44
69524;BME280;56723;42.694;23.286;2023-04-30T15:04:37;94712.16;;;19.23;40.91
69524;BME280;56723;42.694;23.286;2023-04-30T15:07:04;94717.13;;;19.13;41.12
69524;BME280;56723;42.694;23.286;2023-04-30T15:09:31;94723.47;;;18.93;40.92
69524;BME280;56723;42.694;23.286;2023-04-30T15:11:58;94716.44;;;18.76;41.97
69524;BME280;56723;42.694;23.286;2023-04-30T15:14:28;94721.00;;;18.68;41.39
69524;BME280;56723;42.694;23.286;2023-04-30T15:16:55;94721.44;;;18.65;41.50
69524;BME280;56723;42.694;23.286;2023-04-30T15:19:23;94725.75;;;18.42;41.54
69524;BME280;56723;42.694;23.286;2023-04-30T15:21:50;94723.34;;;18.40;42.09
69524;BME280;56723;42.694;23.286;2023-04-30T15:24:17;94733.25;;;18.20;46.60
69524;BME280;56723;42.694;23.286;2023-04-30T15:26:44;94725.47;;;17.95;48.78
69524;BME280;56723;42.694;23.286;2023-04-30T15:29:11;94730.69;;;17.77;50.40
69524;BME280;56723;42.694;23.286;2023-04-30T15:31:38;94738.41;;;17.72;51.53
69524;BME280;56723;42.694;23.286;2023-04-30T15:34:05;94727.84;;;17.53;52.91
69524;BME280;56723;42.694;23.286;2023-04-30T15:36:32;94724.16;;;17.36;53.50
69524;BME280;56723;42.694;23.286;2023-04-30T15:39:00;94741.13;;;17.58;53.52
69524;BME280;56723;42.694;23.286;2023-04-30T15:41:27;94725.59;;;17.82;52.35
69524;BME280;56723;42.694;23.286;2023-04-30T15:43:54;94725.63;;;18.18;50.75
69524;BME280;56723;42.694;23.286;2023-04-30T15:46:20;94724.00;;;18.54;48.93
69524;BME280;56723;42.694;23.286;2023-04-30T15:48:48;94725.84;;;18.83;46.97
69524;BME280;56723;42.694;23.286;2023-04-30T15:51:15;94724.00;;;19.14;45.39
69524;BME280;56723;42.694;23.286;2023-04-30T15:53:43;94722.66;;;19.23;44.65
69524;BME280;56723;42.694;23.286;2023-04-30T15:56:10;94716.69;;;19.16;45.30
69524;BME280;56723;42.694;23.286;2023-04-30T15:58:38;94726.69;;;18.95;45.80
69524;BME280;56723;42.694;23.286;2023-04-30T16:01:05;94725.00;;;18.71;47.06
69524;BME280;56723;42.694;23.286;2023-04-30T16:03:32;94727.94;;;18.45;47.88
69524;BME280;56723;42.694;23.286;2023-04-30T16:06:00;94723.56;;;18.20;48.72
69524;BME280;56723;42.694;23.286;2023-04-30T16:08:28;94718.53;;;18.00;48.80
69524;BME280;56723;42.694;23.286;2023-04-30T16:10:58;94725.75;;;17.87;49.29
69524;BME280;56723;42.694;23.286;2023-04-30T16:13:26;94719.25;;;17.71;47.86
69524;BME280;56723;42.694;23.286;2023-04-30T16:15:52;94723.50;;;18.09;46.74
69524;BME280;56723;42.694;23.286;2023-04-30T16:18:21;94722.84;;;18.50;44.87
69524;BME280;56723;42.694;23.286;2023-04-30T16:20:48;94732.06;;;19.00;44.30
69524;BME280;56723;42.694;23.286;2023-04-30T16:23:15;94727.47;;;19.26;43.27
69524;BME280;56723;42.694;23.286;2023-04-30T16:25:42;94718.75;;;19.14;43.42
69524;BME280;56723;42.694;23.286;2023-04-30T16:28:09;94736.28;;;19.43;43.18
69524;BME280;56723;42.694;23.286;2023-04-30T16:30:36;94730.84;;;19.68;42.66
69524;BME280;56723;42.694;23.286;2023-04-30T16:33:03;94732.09;;;19.89;41.98
69524;BME280;56723;42.694;23.286;2023-04-30T16:35:31;94731.06;;;20.01;41.23
69524;BME280;56723;42.694;23.286;2023-04-30T16:37:58;94729.09;;;20.20;41.09
69524;BME280;56723;42.694;23.286;2023-04-30T16:40:25;94739.13;;;20.47;40.04
69524;BME280;56723;42.694;23.286;2023-04-30T16:42:52;94731.59;;;20.50;39.73
69524;BME280;56723;42.694;23.286;2023-04-30T16:45:19;94728.59;;;20.47;39.97
69524;BME280;56723;42.694;23.286;2023-04-30T16:47:46;94731.63;;;20.38;39.89
69524;BME280;56723;42.694;23.286;2023-04-30T16:50:14;94730.03;;;20.37;40.76
69524;BME280;56723;42.694;23.286;2023-04-30T16:52:41;94735.38;;;20.31;41.07
69524;BME280;56723;42.694;23.286;2023-04-30T16:55:08;94739.16;;;20.23;40.39
69524;BME280;56723;42.694;23.286;2023-04-30T16:57:36;94727.72;;;20.29;39.94
69524;BME280;56723;42.694;23.286;2023-04-30T17:00:03;94740.75;;;20.24;40.61
69524;BME280;56723;42.694;23.286;2023-04-30T17:02:32;94743.50;;;20.06;40.76
69524;BME280;56723;42.694;23.286;2023-04-30T17:04:59;94747.75;;;19.72;41.71
69524;BME280;56723;42.694;23.286;2023-04-30T17:07:26;94747.91;;;19.35;40.99
69524;BME280;56723;42.694;23.286;2023-04-30T17:09:53;94747.44;;;18.85;43.28
69524;BME280;56723;42.694;23.286;2023-04-30T17:12:20;94754.41;;;18.61;44.99
69524;BME280;56723;42.694;23.286;2023-04-30T17:14:47;94759.06;;;18.41;45.60
69524;BME280;56723;42.694;23.286;2023-04-30T17:17:14;94765.75;;;18.19;47.90
69524;BME280;56723;42.694;23.286;2023-04-30T17:19:41;94768.94;;;18.03;48.03
